Time;durP1;ratioP1;P1;durP2;ratioP2;P2;SDS_P1;SDS_P2;PMS_P1;PMS_P2;Temp;Humidity;BMP_temperature;BMP_pressure;BME280_temperature;BME280_humidity;BME280_pressure;Samples;Min_cycle;Max_cycle;Signal;HPM_P1;HPM_P2
2023/09/19 00:02:17;;;;;;;4.72;1.92;;;15.90;99.90;;;;;;4976134;28;20022;-79
2023/09/19 00:04:42;;;;;;;7.07;1.48;;;15.90;99.90;;;;;;4975080;28;20549;-79
2023/09/19 00:07:09;;;;;;;4.75;1.50;;;15.90;99.90;;;;;;4976743;28;20046;-80
2023/09/19 00:09:37;;;;;;;4.32;1.08;;;15.90;99.90;;;;;;4975320;28;20261;-80
2023/09/19 00:12:05;;;;;;;3.50;1.33;;;15.90;99.90;;;;;;4976177;28;20027;-80
2023/09/19 00:14:34;;;;;;;2.55;1.48;;;15.90;99.90;;;;;;4975362;28;20113;-80
2023/09/19 00:17:00;;;;;;;2.38;1.40;;;15.90;99.90;;;;;;4975448;28;20065;-80
2023/09/19 00:19:26;;;;;;;1.90;1.20;;;15.90;99.90;;;;;;4976277;28;20043;-80
2023/09/19 00:21:53;;;;;;;3.47;1.40;;;15.90;99.90;;;;;;4975842;28;20019;-79
2023/09/19 00:24:18;;;;;;;6.20;1.75;;;15.90;99.90;;;;;;4974871;28;20050;-80
2023/09/19 00:26:46;;;;;;;3.72;1.67;;;15.90;99.90;;;;;;4975260;28;20023;-79
2023/09/19 00:29:14;;;;;;;4.95;1.60;;;15.90;99.90;;;;;;4974899;28;20019;-79
2023/09/19 00:31:43;;;;;;;2.88;1.35;;;15.90;99.90;;;;;;4974972;28;20023;-79
2023/09/19 00:34:10;;;;;;;2.13;1.55;;;15.90;99.90;;;;;;4974591;28;20034;-79
2023/09/19 00:36:38;;;;;;;4.40;1.60;;;15.80;99.90;;;;;;4975000;28;20037;-80
2023/09/19 00:39:05;;;;;;;2.53;1.35;;;15.80;99.90;;;;;;4975331;28;20054;-80
2023/09/19 00:41:35;;;;;;;3.72;1.70;;;15.80;99.90;;;;;;4974308;28;20027;-80
2023/09/19 00:44:02;;;;;;;2.72;2.03;;;15.80;99.90;;;;;;4974818;28;20126;-79
2023/09/19 00:46:28;;;;;;;3.47;1.40;;;15.80;99.90;;;;;;4974919;28;20039;-80
2023/09/19 00:48:54;;;;;;;3.78;1.50;;;15.80;99.90;;;;;;4975047;28;20073;-80
2023/09/19 00:51:22;;;;;;;4.00;1.70;;;15.70;99.90;;;;;;4974860;28;20085;-80
2023/09/19 00:53:48;;;;;;;3.13;1.23;;;15.70;99.90;;;;;;4974296;28;20579;-80
2023/09/19 00:56:18;;;;;;;5.43;1.60;;;15.70;99.90;;;;;;4974611;28;20015;-79
2023/09/19 00:58:44;;;;;;;5.03;1.60;;;15.70;99.90;;;;;;4974713;28;20041;-80
2023/09/19 01:01:11;;;;;;;3.72;1.75;;;15.70;99.90;;;;;;4975047;28;20034;-80
2023/09/19 01:03:37;;;;;;;3.85;1.45;;;15.70;99.90;;;;;;4974242;28;20066;-79
2023/09/19 01:06:03;;;;;;;2.83;1.42;;;15.70;99.90;;;;;;4973459;28;20063;-80
2023/09/19 01:08:29;;;;;;;2.13;1.40;;;15.70;99.90;;;;;;4974449;28;20037;-80
2023/09/19 01:11:10;;;;;;;3.17;1.38;;;15.80;99.90;;;;;;4969928;28;20129;-80
2023/09/19 01:13:50;;;;;;;4.90;1.42;;;15.80;99.90;;;;;;4974039;28;20034;-80
2023/09/19 01:16:36;;;;;;;2.75;1.40;;;15.80;99.90;;;;;;4973949;28;20159;-80
2023/09/19 01:19:20;;;;;;;3.35;1.48;;;15.80;99.90;;;;;;4972698;28;20042;-80
2023/09/19 01:22:32;;;;;;;2.85;1.48;;;15.80;99.90;;;;;;4973802;28;20077;-80
2023/09/19 01:25:33;;;;;;;3.22;1.52;;;15.80;99.90;;;;;;4972728;28;20047;-81
2023/09/19 01:28:29;;;;;;;3.50;1.70;;;15.90;99.90;;;;;;4975855;28;20027;-80
2023/09/19 01:31:01;;;;;;;4.20;1.40;;;15.90;99.90;;;;;;4974932;28;20023;-80
2023/09/19 01:33:27;;;;;;;5.20;1.45;;;15.90;99.90;;;;;;4974769;28;20101;-79
2023/09/19 01:35:58;;;;;;;2.65;1.38;;;15.90;99.90;;;;;;4973514;28;20034;-80
2023/09/19 01:38:24;;;;;;;3.72;2.17;;;15.90;99.90;;;;;;4975182;28;20094;-79
2023/09/19 01:41:10;;;;;;;4.88;1.30;;;15.90;99.90;;;;;;4973328;28;20058;-79
2023/09/19 01:43:42;;;;;;;5.88;1.83;;;15.90;99.90;;;;;;4975486;28;20066;-80
2023/09/19 01:46:35;;;;;;;1.65;1.20;;;16.00;99.90;;;;;;4973893;28;20429;-80
2023/09/19 01:49:22;;;;;;;3.05;1.27;;;15.90;99.90;;;;;;4972455;28;20037;-79
2023/09/19 01:52:06;;;;;;;6.25;1.67;;;15.90;99.90;;;;;;4973805;28;20053;-79
2023/09/19 01:54:41;;;;;;;4.22;1.50;;;15.90;99.90;;;;;;4973104;28;20078;-80
2023/09/19 01:57:14;;;;;;;4.88;1.60;;;15.90;99.90;;;;;;4965147;28;20087;-80
2023/09/19 01:59:54;;;;;;;3.53;1.40;;;16.00;99.90;;;;;;4968027;28;20098;-79
2023/09/19 02:02:22;;;;;;;5.47;2.15;;;15.90;99.90;;;;;;4968371;28;20019;-79
2023/09/19 02:04:49;;;;;;;3.75;1.58;;;16.00;99.90;;;;;;4970533;28;20023;-80
2023/09/19 02:07:15;;;;;;;5.10;1.48;;;16.00;99.90;;;;;;4975406;28;20027;-80
2023/09/19 02:09:42;;;;;;;3.95;1.50;;;15.90;99.90;;;;;;4975160;28;20034;-81
2023/09/19 02:12:09;;;;;;;2.22;1.20;;;15.90;99.90;;;;;;4974868;28;20074;-79
2023/09/19 02:14:36;;;;;;;3.00;1.40;;;16.00;99.90;;;;;;4974036;28;20541;-80
2023/09/19 02:17:11;;;;;;;3.28;1.50;;;16.00;99.90;;;;;;4977561;28;20042;-80
2023/09/19 02:19:38;;;;;;;;;;;16.00;99.90;;;;;;4978276;28;20061;-80
2023/09/19 02:22:07;;;;;;;2.63;1.40;;;16.00;99.90;;;;;;4977292;28;20368;-80
2023/09/19 02:24:33;;;;;;;4.38;1.40;;;15.90;99.90;;;;;;4977871;28;20066;-80
2023/09/19 02:27:03;;;;;;;4.18;1.50;;;16.00;99.90;;;;;;4977615;28;20039;-80
2023/09/19 02:29:29;;;;;;;3.20;1.40;;;15.90;99.90;;;;;;4977760;28;20398;-80
2023/09/19 02:31:55;;;;;;;7.35;1.58;;;15.90;99.90;;;;;;4977963;28;20037;-80
2023/09/19 02:34:21;;;;;;;3.05;1.60;;;15.90;99.90;;;;;;4976944;28;20110;-80
2023/09/19 02:36:47;;;;;;;3.83;1.95;;;15.90;99.90;;;;;;4977920;28;20057;-81
2023/09/19 02:39:13;;;;;;;4.00;1.55;;;15.90;99.90;;;;;;4978271;28;20090;-80
2023/09/19 02:41:38;;;;;;;3.90;1.50;;;15.90;99.90;;;;;;4976836;28;20027;-80
2023/09/19 02:44:07;;;;;;;3.45;1.50;;;15.90;99.90;;;;;;4977544;28;20026;-80
2023/09/19 02:46:33;;;;;;;2.85;1.48;;;15.90;99.90;;;;;;4977092;28;20090;-81
2023/09/19 02:48:59;;;;;;;2.72;1.50;;;15.80;99.90;;;;;;4977128;28;20078;-80
2023/09/19 02:51:24;;;;;;;4.47;1.60;;;15.80;99.90;;;;;;4977155;28;20387;-80
2023/09/19 02:53:52;;;;;;;3.17;1.23;;;15.80;99.90;;;;;;4976988;28;20022;-79
2023/09/19 02:56:18;;;;;;;2.33;1.42;;;15.80;99.90;;;;;;4976223;28;20031;-79
2023/09/19 02:58:44;;;;;;;3.97;1.50;;;15.80;99.90;;;;;;4976656;28;20366;-79
2023/09/19 03:01:12;;;;;;;3.65;1.50;;;15.80;99.90;;;;;;4976438;28;20033;-80
2023/09/19 03:03:40;;;;;;;3.35;1.27;;;15.80;99.90;;;;;;4976029;28;20031;-80
2023/09/19 03:06:08;;;;;;;5.07;1.58;;;15.80;99.90;;;;;;4975289;28;20023;-80
2023/09/19 03:08:36;;;;;;;7.00;1.85;;;15.80;99.90;;;;;;4976645;28;20033;-80
2023/09/19 03:11:05;;;;;;;4.57;1.80;;;15.70;99.90;;;;;;4976408;28;20046;-81
2023/09/19 03:13:31;;;;;;;3.85;1.67;;;15.70;99.90;;;;;;4976662;28;20053;-80
2023/09/19 03:15:58;;;;;;;1.90;1.33;;;15.70;99.90;;;;;;4975039;28;20031;-79
2023/09/19 03:18:26;;;;;;;5.75;1.70;;;15.70;99.90;;;;;;4975814;28;20045;-80
2023/09/19 03:20:55;;;;;;;2.53;1.40;;;15.70;99.90;;;;;;4975602;28;20023;-80
2023/09/19 03:23:21;;;;;;;2.40;1.35;;;15.70;99.90;;;;;;4976248;28;20039;-80
2023/09/19 03:25:47;;;;;;;2.33;1.40;;;15.70;99.90;;;;;;4974082;28;20034;-80
2023/09/19 03:28:13;;;;;;;3.88;1.67;;;15.60;99.90;;;;;;4975124;28;20367;-80
2023/09/19 03:30:38;;;;;;;6.38;1.70;;;15.60;99.90;;;;;;4974608;28;20038;-80
2023/09/19 03:33:04;;;;;;;2.10;1.50;;;15.60;99.90;;;;;;4975754;28;20239;-80
2023/09/19 03:35:30;;;;;;;3.95;1.45;;;15.60;99.90;;;;;;4974255;28;20023;-80
2023/09/19 03:37:56;;;;;;;3.92;1.50;;;15.60;99.90;;;;;;4976579;28;20022;-80
2023/09/19 03:40:23;;;;;;;5.07;1.73;;;15.60;99.90;;;;;;4976225;28;20030;-80
2023/09/19 03:42:49;;;;;;;4.28;1.63;;;15.60;99.90;;;;;;4976842;28;20220;-79
2023/09/19 03:45:16;;;;;;;2.83;1.67;;;15.60;99.90;;;;;;4975826;28;20035;-80
2023/09/19 03:47:41;;;;;;;5.13;1.80;;;15.60;99.90;;;;;;4977302;28;20050;-80
2023/09/19 03:50:11;;;;;;;3.60;1.58;;;15.60;99.90;;;;;;4976847;28;20038;-80
2023/09/19 03:52:36;;;;;;;3.80;1.67;;;15.60;99.90;;;;;;4977224;28;20039;-80
2023/09/19 03:55:04;;;;;;;3.20;1.70;;;15.70;99.90;;;;;;4976849;28;20476;-80
2023/09/19 03:57:30;;;;;;;3.85;1.50;;;15.70;99.90;;;;;;4976545;28;20023;-80
2023/09/19 03:59:55;;;;;;;2.35;1.60;;;15.70;99.90;;;;;;4977116;28;21320;-80
2023/09/19 04:02:24;;;;;;;3.05;1.50;;;15.70;99.90;;;;;;4977265;28;20027;-80
2023/09/19 04:04:51;;;;;;;3.05;1.40;;;15.70;99.90;;;;;;4975790;28;20061;-81
2023/09/19 04:07:19;;;;;;;3.83;1.80;;;15.80;99.90;;;;;;4976622;28;20187;-81
2023/09/19 04:09:45;;;;;;;3.67;1.70;;;15.80;99.90;;;;;;4967775;28;20042;-81
2023/09/19 04:12:11;;;;;;;2.78;1.50;;;15.80;99.90;;;;;;4975893;28;20027;-80
2023/09/19 04:14:38;;;;;;;6.00;2.08;;;15.80;99.90;;;;;;4968505;28;20019;-79
2023/09/19 04:17:05;;;;;;;4.80;1.70;;;15.80;99.90;;;;;;4977087;28;20054;-80
2023/09/19 04:19:30;;;;;;;3.90;1.27;;;15.90;99.90;;;;;;4976048;28;20030;-79
2023/09/19 04:21:56;;;;;;;4.88;1.45;;;15.90;99.90;;;;;;4975985;28;20045;-80
2023/09/19 04:24:21;;;;;;;5.93;1.55;;;15.90;99.90;;;;;;4975534;28;20089;-80
2023/09/19 04:26:48;;;;;;;3.35;1.30;;;16.00;99.90;;;;;;4976236;28;20026;-79
2023/09/19 04:29:13;;;;;;;3.63;1.45;;;16.00;99.90;;;;;;4976603;28;20027;-80
2023/09/19 04:31:40;;;;;;;3.03;1.60;;;16.00;99.90;;;;;;4975835;28;20393;-80
2023/09/19 04:34:06;;;;;;;4.93;2.08;;;16.00;99.90;;;;;;4975678;28;20086;-80
2023/09/19 04:36:31;;;;;;;4.53;1.65;;;16.00;99.90;;;;;;4975361;28;20031;-80
2023/09/19 04:38:57;;;;;;;3.45;1.50;;;16.00;99.90;;;;;;4975623;28;20374;-81
2023/09/19 04:41:23;;;;;;;2.25;1.38;;;16.10;99.90;;;;;;4971110;28;20081;-81
2023/09/19 04:43:50;;;;;;;4.18;1.60;;;16.00;99.90;;;;;;4974910;28;20027;-81
2023/09/19 04:46:17;;;;;;;2.65;1.67;;;16.00;99.90;;;;;;4972920;28;20090;-80
2023/09/19 04:48:43;;;;;;;6.25;1.70;;;16.10;99.90;;;;;;4973892;28;20030;-80
2023/09/19 04:51:08;;;;;;;2.55;1.55;;;16.00;99.90;;;;;;4974303;28;20023;-81
2023/09/19 04:53:34;;;;;;;3.00;1.42;;;16.00;99.90;;;;;;4974787;28;20102;-80
2023/09/19 04:55:59;;;;;;;2.97;1.65;;;16.10;99.90;;;;;;4974096;28;20102;-81
2023/09/19 04:58:25;;;;;;;3.25;1.55;;;16.10;99.90;;;;;;4974140;28;20101;-80
2023/09/19 05:00:51;;;;;;;2.63;1.50;;;16.10;99.90;;;;;;4974392;28;20568;-81
2023/09/19 05:03:17;;;;;;;6.22;1.70;;;16.10;99.90;;;;;;4975301;28;20142;-82
2023/09/19 05:05:42;;;;;;;7.10;1.50;;;16.10;99.90;;;;;;4973844;28;20106;-80
2023/09/19 05:08:09;;;;;;;3.85;1.58;;;16.10;99.90;;;;;;4975896;28;20098;-80
2023/09/19 05:10:37;;;;;;;2.30;1.30;;;16.10;99.90;;;;;;4974842;28;20433;-81
2023/09/19 05:13:07;;;;;;;2.83;1.88;;;16.00;99.90;;;;;;4975728;28;20035;-80
2023/09/19 05:15:33;;;;;;;2.78;1.60;;;16.10;99.90;;;;;;4975879;28;20065;-80
2023/09/19 05:17:59;;;;;;;2.22;1.58;;;16.10;99.90;;;;;;4975794;28;20027;-81
2023/09/19 05:20:29;;;;;;;3.28;1.38;;;16.00;99.90;;;;;;4975201;28;20034;-80
2023/09/19 05:23:07;;;;;;;3.33;1.52;;;16.10;99.90;;;;;;4975477;28;20023;-80
2023/09/19 05:25:37;;;;;;;3.70;1.45;;;16.00;99.90;;;;;;4975436;28;20027;-82
2023/09/19 05:28:05;;;;;;;4.72;1.58;;;16.10;99.90;;;;;;4976243;28;20051;-80
2023/09/19 05:30:31;;;;;;;3.38;1.30;;;16.00;99.90;;;;;;4975410;28;20027;-81
2023/09/19 05:32:57;;;;;;;3.05;1.30;;;16.10;99.90;;;;;;4975914;28;20103;-80
2023/09/19 05:35:24;;;;;;;2.83;1.30;;;16.00;99.90;;;;;;4974590;28;20097;-81
2023/09/19 05:37:54;;;;;;;3.63;1.52;;;16.10;99.90;;;;;;4975942;28;20370;-81
2023/09/19 05:40:20;;;;;;;2.50;1.30;;;16.10;99.90;;;;;;4973592;28;20145;-81
2023/09/19 05:42:46;;;;;;;3.58;1.30;;;16.00;99.90;;;;;;4973978;28;20031;-80
2023/09/19 05:45:13;;;;;;;3.05;1.50;;;16.10;99.90;;;;;;4974908;28;20034;-80
2023/09/19 05:47:43;;;;;;;3.05;1.40;;;16.10;99.90;;;;;;4974719;28;20608;-80
2023/09/19 05:50:09;;;;;;;1.67;1.20;;;16.10;99.90;;;;;;4973265;28;20382;-80
2023/09/19 05:52:38;;;;;;;3.53;1.33;;;16.10;99.90;;;;;;4976597;28;20022;-80
2023/09/19 05:55:07;;;;;;;2.35;1.33;;;16.10;99.90;;;;;;4975282;28;20054;-80
2023/09/19 05:57:37;;;;;;;3.95;1.58;;;16.10;99.90;;;;;;4976182;28;20030;-79
2023/09/19 06:00:08;;;;;;;4.15;1.33;;;16.20;99.90;;;;;;4976207;28;20030;-80
2023/09/19 06:02:35;;;;;;;4.00;1.48;;;16.20;99.90;;;;;;4976220;28;20434;-80
2023/09/19 06:05:01;;;;;;;1.65;1.35;;;16.30;99.90;;;;;;4973078;28;20076;-80
2023/09/19 06:07:28;;;;;;;3.47;1.30;;;16.30;99.90;;;;;;4972719;28;20085;-81
2023/09/19 06:09:54;;;;;;;2.85;1.40;;;16.40;99.90;;;;;;4972219;28;20094;-83
2023/09/19 06:12:19;;;;;;;2.80;1.33;;;16.40;99.90;;;;;;4972780;28;20103;-81
2023/09/19 06:14:46;;;;;;;4.13;1.60;;;16.40;99.90;;;;;;4971770;28;20022;-80
2023/09/19 06:17:11;;;;;;;4.53;1.60;;;16.50;99.90;;;;;;4972722;28;20035;-83
2023/09/19 06:19:37;;;;;;;2.47;1.50;;;16.50;99.90;;;;;;4972339;28;20022;-80
2023/09/19 06:22:03;;;;;;;2.78;1.67;;;16.50;99.90;;;;;;4972386;28;20478;-80
2023/09/19 06:24:29;;;;;;;4.22;1.23;;;16.50;99.90;;;;;;4971812;28;20038;-81
2023/09/19 06:26:54;;;;;;;2.15;1.40;;;16.50;99.90;;;;;;4973527;28;20174;-81
2023/09/19 06:29:23;;;;;;;3.28;1.30;;;16.50;99.90;;;;;;4972354;28;20018;-81
2023/09/19 06:31:48;;;;;;;5.00;1.50;;;16.50;99.90;;;;;;4972079;28;20371;-80
2023/09/19 06:34:15;;;;;;;3.83;1.20;;;16.50;99.90;;;;;;4971556;28;20097;-80
2023/09/19 06:36:41;;;;;;;3.33;1.30;;;16.50;99.90;;;;;;4972163;28;20027;-80
2023/09/19 06:39:06;;;;;;;3.85;1.63;;;16.60;99.90;;;;;;4972237;28;20078;-79
2023/09/19 06:41:32;;;;;;;3.13;1.20;;;16.70;99.90;;;;;;4968150;28;20078;-81
2023/09/19 06:43:57;;;;;;;2.08;1.30;;;16.90;99.90;;;;;;4971676;28;20061;-82
2023/09/19 06:46:24;;;;;;;4.72;1.50;;;16.90;99.90;;;;;;4971754;28;20018;-81
2023/09/19 06:48:52;;;;;;;5.38;1.30;;;17.00;99.90;;;;;;4971997;28;20516;-82
2023/09/19 06:51:18;;;;;;;2.22;1.10;;;17.10;99.90;;;;;;4971766;28;20019;-81
2023/09/19 06:53:43;;;;;;;3.60;1.20;;;17.20;99.90;;;;;;4971894;28;20051;-84
2023/09/19 06:56:09;;;;;;;3.20;1.40;;;17.30;99.90;;;;;;4971423;28;20081;-81
2023/09/19 06:58:36;;;;;;;3.05;1.50;;;17.40;99.90;;;;;;4971912;28;20042;-81
2023/09/19 07:01:03;;;;;;;3.17;1.30;;;17.50;99.90;;;;;;4972046;28;20180;-82
2023/09/19 07:03:28;;;;;;;8.65;1.33;;;17.50;99.90;;;;;;4975658;28;20022;-81
2023/09/19 07:05:55;;;;;;;3.08;1.20;;;17.60;99.90;;;;;;4974439;28;20141;-81
2023/09/19 07:08:21;;;;;;;2.92;1.30;;;17.60;99.90;;;;;;4975466;28;20018;-81
2023/09/19 07:10:52;;;;;;;2.58;1.40;;;17.60;99.90;;;;;;4974839;28;20042;-82
2023/09/19 07:13:18;;;;;;;4.13;1.40;;;17.60;99.90;;;;;;4975383;28;20026;-81
2023/09/19 07:15:47;;;;;;;2.72;1.20;;;17.60;99.90;;;;;;4974564;28;20396;-80
2023/09/19 07:18:17;;;;;;;2.08;1.15;;;17.70;99.90;;;;;;4975305;28;20073;-80
2023/09/19 07:20:49;;;;;;;2.25;1.13;;;17.70;99.90;;;;;;4976313;28;20035;-83
2023/09/19 07:23:18;;;;;;;2.42;1.10;;;17.80;99.90;;;;;;4976559;28;20113;-80
2023/09/19 07:25:44;;;;;;;3.92;1.42;;;17.80;99.90;;;;;;4975891;28;20074;-81
2023/09/19 07:28:10;;;;;;;2.58;1.30;;;17.80;99.90;;;;;;4975507;28;20035;-81
2023/09/19 07:30:37;;;;;;;3.40;1.10;;;17.90;99.90;;;;;;4976059;28;20046;-81
2023/09/19 07:33:04;;;;;;;2.00;1.27;;;17.90;99.90;;;;;;4976096;28;20042;-81
2023/09/19 07:35:31;;;;;;;2.72;1.10;;;17.90;99.90;;;;;;4975517;28;20047;-79
2023/09/19 07:37:58;;;;;;;1.77;1.10;;;17.90;99.90;;;;;;4976907;28;20102;-82
2023/09/19 07:40:24;;;;;;;4.07;1.25;;;17.90;99.90;;;;;;4974533;28;20050;-80
2023/09/19 07:42:50;;;;;;;2.10;1.27;;;18.00;99.90;;;;;;4975016;28;20023;-81
2023/09/19 07:45:17;;;;;;;2.50;1.20;;;18.20;99.90;;;;;;4976242;28;20029;-80
2023/09/19 07:47:46;;;;;;;2.35;1.23;;;18.30;99.90;;;;;;4977022;28;20104;-80
2023/09/19 07:50:13;;;;;;;2.72;1.00;;;18.40;99.90;;;;;;4977120;28;20023;-80
2023/09/19 07:52:39;;;;;;;2.75;1.10;;;18.60;99.90;;;;;;4976345;28;20153;-79
2023/09/19 07:55:08;;;;;;;2.95;1.17;;;18.70;99.90;;;;;;4973811;28;20643;-81
2023/09/19 07:57:35;;;;;;;3.85;1.23;;;18.80;99.90;;;;;;4976261;28;20018;-80
2023/09/19 08:00:00;;;;;;;4.43;1.20;;;18.80;99.90;;;;;;4976015;28;20035;-79
2023/09/19 08:02:28;;;;;;;3.40;1.00;;;18.80;99.90;;;;;;4976401;28;20300;-81
2023/09/19 08:04:53;;;;;;;2.47;1.00;;;18.80;99.90;;;;;;4975145;28;20027;-81
2023/09/19 08:07:19;;;;;;;1.50;1.10;;;18.80;99.90;;;;;;4975793;28;20086;-82
2023/09/19 08:09:46;;;;;;;2.08;1.20;;;18.80;99.90;;;;;;4975782;28;20014;-81
2023/09/19 08:12:12;;;;;;;3.08;1.30;;;18.80;99.90;;;;;;4975504;28;20015;-81
2023/09/19 08:14:37;;;;;;;2.40;0.85;;;18.70;99.90;;;;;;4975019;28;20023;-81
2023/09/19 08:17:05;;;;;;;2.38;0.90;;;18.60;99.90;;;;;;4975736;28;20026;-81
2023/09/19 08:19:31;;;;;;;3.20;1.27;;;18.60;99.90;;;;;;4975070;28;20034;-81
2023/09/19 08:22:01;;;;;;;2.22;1.27;;;18.70;99.90;;;;;;4975662;28;20053;-81
2023/09/19 08:24:30;;;;;;;1.50;0.98;;;18.70;99.90;;;;;;4974453;28;20022;-81
2023/09/19 08:26:57;;;;;;;3.00;1.30;;;18.80;99.90;;;;;;4975592;28;20437;-81
2023/09/19 08:29:27;;;;;;;2.97;1.10;;;18.90;99.90;;;;;;4975096;28;20014;-80
2023/09/19 08:31:57;;;;;;;2.97;1.27;;;19.00;99.90;;;;;;4975317;28;20023;-80
2023/09/19 08:34:26;;;;;;;2.28;1.17;;;19.10;99.90;;;;;;4974124;28;20030;-81
2023/09/19 08:36:56;;;;;;;2.50;1.10;;;19.30;99.90;;;;;;4974035;28;20022;-82
2023/09/19 08:39:22;;;;;;;1.85;1.10;;;19.40;99.90;;;;;;4975121;28;20102;-80
2023/09/19 08:41:47;;;;;;;2.53;1.27;;;19.60;99.90;;;;;;4971264;28;20019;-83
2023/09/19 08:44:14;;;;;;;4.60;1.63;;;19.80;99.90;;;;;;4965770;28;20019;-79
2023/09/19 08:46:41;;;;;;;3.95;1.20;;;19.90;99.90;;;;;;4973796;28;20541;-81
2023/09/19 08:49:39;;;;;;;2.05;1.20;;;20.00;99.90;;;;;;4973766;28;20105;-82
2023/09/19 08:52:19;;;;;;;3.10;1.02;;;20.00;99.90;;;;;;4941669;28;20117;-83
2023/09/19 08:54:48;;;;;;;1.77;1.20;;;20.10;99.90;;;;;;4973178;28;20033;-79
2023/09/19 08:57:21;;;;;;;1.95;1.10;;;20.00;99.90;;;;;;4974160;28;20099;-81
2023/09/19 08:59:48;;;;;;;2.75;1.55;;;20.10;99.90;;;;;;4973571;28;20042;-81
2023/09/19 09:02:15;;;;;;;1.40;1.00;;;20.10;99.90;;;;;;4974535;28;20023;-80
2023/09/19 09:04:41;;;;;;;4.68;1.10;;;20.20;99.90;;;;;;4973273;28;20054;-80
2023/09/19 09:07:13;;;;;;;2.55;1.23;;;20.20;99.90;;;;;;4974125;28;20110;-81
2023/09/19 09:09:43;;;;;;;1.45;0.88;;;20.40;99.90;;;;;;4973341;28;20497;-80
2023/09/19 09:12:13;;;;;;;1.38;0.95;;;20.40;99.90;;;;;;4973614;28;20094;-81
2023/09/19 09:14:49;;;;;;;2.45;1.10;;;20.40;99.90;;;;;;4973453;28;20078;-81
2023/09/19 09:17:20;;;;;;;3.22;1.20;;;20.20;99.90;;;;;;4974112;28;20050;-81
2023/09/19 09:19:47;;;;;;;3.33;1.23;;;20.00;99.90;;;;;;4973542;28;20038;-83
2023/09/19 09:22:12;;;;;;;2.60;1.15;;;19.90;99.90;;;;;;4973766;28;20090;-81
2023/09/19 09:24:54;;;;;;;2.25;1.15;;;20.00;99.90;;;;;;4972497;28;20525;-82
2023/09/19 09:27:20;;;;;;;2.38;1.10;;;20.10;99.90;;;;;;4973409;28;20105;-84
2023/09/19 09:29:49;;;;;;;4.97;1.23;;;20.20;99.90;;;;;;4973143;28;20470;-81
2023/09/19 09:32:21;;;;;;;2.90;1.35;;;20.40;99.90;;;;;;4966083;28;20063;-81
2023/09/19 09:34:55;;;;;;;3.20;1.20;;;20.60;99.90;;;;;;4972643;28;20097;-80
2023/09/19 09:37:22;;;;;;;5.07;1.33;;;21.00;99.90;;;;;;4973069;28;20093;-80
2023/09/19 09:39:58;;;;;;;2.28;1.15;;;21.40;99.90;;;;;;4971104;28;20705;-83
2023/09/19 09:42:35;;;;;;;4.15;1.30;;;21.60;99.90;;;;;;4970976;28;20055;-82
2023/09/19 09:48:31;;;;;;;1.80;1.00;;;21.70;99.90;;;;;;4960077;28;20118;-83
2023/09/19 09:50:59;;;;;;;2.60;1.20;;;21.70;99.90;;;;;;4972744;28;20042;-82
2023/09/19 09:53:28;;;;;;;3.97;1.38;;;21.60;99.90;;;;;;4973050;28;20501;-81
2023/09/19 09:56:09;;;;;;;2.95;1.30;;;21.70;99.90;;;;;;4972298;28;20035;-81
2023/09/19 09:58:55;;;;;;;1.80;1.00;;;21.90;99.90;;;;;;4973210;28;20076;-80
2023/09/19 10:01:21;;;;;;;2.38;1.10;;;22.00;99.90;;;;;;4972950;28;20105;-81
2023/09/19 10:03:51;;;;;;;1.90;1.13;;;22.00;99.90;;;;;;4972928;28;20015;-82
2023/09/19 10:09:21;;;;;;;3.72;1.30;;;21.90;99.90;;;;;;4972664;28;20113;-84
2023/09/19 10:11:54;;;;;;;2.38;1.00;;;21.80;99.90;;;;;;4972724;28;20054;-81
2023/09/19 10:14:23;;;;;;;2.17;1.10;;;21.80;99.90;;;;;;4972007;28;20030;-81
2023/09/19 10:16:49;;;;;;;3.47;0.95;;;22.00;99.90;;;;;;4972185;28;20038;-81
2023/09/19 10:19:30;;;;;;;3.63;1.10;;;22.10;99.90;;;;;;4972291;28;20398;-83
2023/09/19 10:21:56;;;;;;;2.67;1.05;;;22.20;99.90;;;;;;4972649;28;20019;-80
2023/09/19 10:24:24;;;;;;;3.80;1.20;;;22.40;99.90;;;;;;4971929;28;20039;-82
2023/09/19 10:26:51;;;;;;;3.33;0.93;;;22.50;99.90;;;;;;4972422;28;20587;-82
2023/09/19 10:29:18;;;;;;;2.30;1.30;;;22.50;99.90;;;;;;4972119;28;20134;-83
2023/09/19 10:31:47;;;;;;;3.13;1.20;;;22.30;99.90;;;;;;4972492;28;20621;-79
2023/09/19 10:34:17;;;;;;;2.40;1.25;;;22.10;99.90;;;;;;4971847;28;20441;-81
2023/09/19 10:36:46;;;;;;;2.58;1.02;;;21.90;99.90;;;;;;4974280;28;20054;-81
2023/09/19 10:39:18;;;;;;;1.60;0.90;;;21.90;99.90;;;;;;4976071;28;20486;-81
2023/09/19 10:41:53;;;;;;;2.47;1.27;;;22.00;99.90;;;;;;4971644;28;20023;-81
2023/09/19 10:44:31;;;;;;;2.35;1.35;;;22.30;99.90;;;;;;4975230;28;20031;-84
2023/09/19 10:46:57;;;;;;;3.08;1.10;;;22.30;99.90;;;;;;4976008;28;20046;-82
2023/09/19 10:49:24;;;;;;;3.17;1.30;;;22.20;99.90;;;;;;4975569;28;20393;-83
2023/09/19 10:51:58;;;;;;;4.05;1.27;;;22.10;99.90;;;;;;4975691;28;20217;-81
2023/09/19 10:54:26;;;;;;;2.60;1.30;;;22.10;99.90;;;;;;4974655;28;20107;-81
2023/09/19 10:56:53;;;;;;;2.88;1.15;;;22.30;99.90;;;;;;4976010;28;20371;-82
2023/09/19 10:59:20;;;;;;;4.60;1.00;;;22.60;99.90;;;;;;4975327;28;20031;-82
2023/09/19 11:01:52;;;;;;;3.28;1.10;;;22.90;99.90;;;;;;4975737;28;20026;-82
2023/09/19 11:04:29;;;;;;;1.85;1.20;;;23.10;99.90;;;;;;4977639;28;20034;-81
2023/09/19 11:07:04;;;;;;;1.80;1.10;;;23.20;99.90;;;;;;4978287;28;20031;-82
2023/09/19 11:09:58;;;;;;;2.65;1.05;;;23.00;99.90;;;;;;4977700;28;20043;-81
2023/09/19 11:12:35;;;;;;;3.37;1.30;;;22.80;99.90;;;;;;4978453;28;20018;-80
2023/09/19 11:15:05;;;;;;;3.55;1.05;;;22.70;99.90;;;;;;4977079;28;20031;-81
2023/09/19 11:17:37;;;;;;;2.28;1.05;;;22.60;99.90;;;;;;4979427;28;20094;-80
2023/09/19 11:22:53;;;;;;;3.63;1.13;;;22.40;99.90;;;;;;4977192;28;20023;-83
2023/09/19 11:25:31;;;;;;;2.83;1.00;;;22.60;99.90;;;;;;4977272;28;20105;-81
2023/09/19 11:28:05;;;;;;;1.77;1.08;;;22.80;99.90;;;;;;4977237;28;20037;-80
2023/09/19 11:30:36;;;;;;;2.63;1.10;;;23.10;99.90;;;;;;4977548;28;20023;-83
2023/09/19 11:33:28;;;;;;;1.75;0.98;;;23.40;99.90;;;;;;4977293;28;20035;-81
2023/09/19 11:36:11;;;;;;;2.20;1.00;;;23.60;99.90;;;;;;4976993;28;20077;-80
2023/09/19 11:39:01;;;;;;;2.85;0.82;;;23.30;99.90;;;;;;4978067;28;20027;-82
2023/09/19 11:41:37;;;;;;;2.60;0.93;;;23.00;99.90;;;;;;4966193;28;20039;-84
2023/09/19 11:44:04;;;;;;;1.50;0.90;;;22.80;99.90;;;;;;4975582;28;20062;-82
2023/09/19 11:46:52;;;;;;;2.00;0.95;;;22.60;99.90;;;;;;4977377;28;20892;-81
2023/09/19 11:49:23;;;;;;;2.13;0.90;;;22.30;99.90;;;;;;4969358;28;20058;-82
2023/09/19 11:51:51;;;;;;;2.88;1.02;;;22.10;99.90;;;;;;4977359;28;20058;-82
2023/09/19 11:54:28;;;;;;;3.10;1.02;;;21.90;99.90;;;;;;4969719;28;20042;-82
2023/09/19 11:56:54;;;;;;;3.00;1.23;;;21.80;99.90;;;;;;4977563;28;20086;-81
2023/09/19 11:59:24;;;;;;;3.17;1.20;;;21.70;99.90;;;;;;4977617;28;20015;-81
2023/09/19 12:01:57;;;;;;;3.15;1.13;;;21.60;99.90;;;;;;4977167;28;20023;-83
2023/09/19 12:04:41;;;;;;;1.33;0.90;;;21.70;99.90;;;;;;4969635;28;20489;-81
2023/09/19 12:07:16;;;;;;;2.08;0.90;;;22.00;99.90;;;;;;4977435;28;20474;-81
2023/09/19 12:09:50;;;;;;;3.88;1.13;;;22.30;99.90;;;;;;4976571;28;20083;-81
2023/09/19 12:12:35;;;;;;;3.15;1.10;;;22.40;99.90;;;;;;4975820;28;20413;-81
2023/09/19 12:15:03;;;;;;;1.77;1.20;;;22.60;99.90;;;;;;4974079;28;20545;-81
2023/09/19 12:17:41;;;;;;;3.13;0.98;;;22.70;99.90;;;;;;4975033;28;20114;-81
2023/09/19 12:20:13;;;;;;;4.25;1.13;;;23.10;99.90;;;;;;4974555;28;20099;-80
2023/09/19 12:22:43;;;;;;;2.35;1.10;;;23.40;99.90;;;;;;4975165;28;20027;-81
2023/09/19 12:25:11;;;;;;;2.35;1.00;;;23.50;99.90;;;;;;4973499;28;20505;-81
2023/09/19 12:27:52;;;;;;;2.03;1.00;;;23.40;99.90;;;;;;4974709;28;20057;-81
2023/09/19 12:30:20;;;;;;;2.17;0.90;;;23.20;99.90;;;;;;4974416;28;20109;-81
2023/09/19 12:32:47;;;;;;;4.40;1.20;;;23.00;99.90;;;;;;4975241;28;20046;-82
2023/09/19 12:35:28;;;;;;;3.15;1.20;;;22.80;99.90;;;;;;4975054;28;20425;-81
2023/09/19 12:37:55;;;;;;;1.70;0.93;;;22.60;99.90;;;;;;4976460;28;20023;-80
2023/09/19 12:40:22;;;;;;;1.85;1.00;;;22.30;99.90;;;;;;4973646;28;20031;-82
2023/09/19 12:42:49;;;;;;;3.35;1.10;;;22.00;99.90;;;;;;4972983;28;20074;-81
2023/09/19 12:45:17;;;;;;;3.15;1.30;;;21.70;99.90;;;;;;4974801;28;20027;-81
2023/09/19 12:48:29;;;;;;;2.50;1.20;;;21.40;99.90;;;;;;4976251;28;20109;-81
2023/09/19 12:51:11;;;;;;;4.38;1.15;;;21.20;99.90;;;;;;4975113;28;20085;-81
2023/09/19 12:53:46;;;;;;;5.25;1.02;;;21.00;99.90;;;;;;4976036;28;20103;-81
2023/09/19 12:56:17;;;;;;;2.47;1.10;;;21.00;99.90;;;;;;4974478;28;20026;-81
2023/09/19 12:58:50;;;;;;;4.60;1.55;;;21.10;99.90;;;;;;4975165;28;20023;-81
2023/09/19 13:01:17;;;;;;;1.88;1.10;;;21.20;99.90;;;;;;4975261;28;20099;-83
2023/09/19 13:03:42;;;;;;;2.08;1.10;;;21.30;99.90;;;;;;4974280;28;20072;-81
2023/09/19 13:06:09;;;;;;;2.60;1.20;;;21.50;99.90;;;;;;4973692;28;20073;-80
2023/09/19 13:08:42;;;;;;;1.95;1.10;;;21.70;99.90;;;;;;4974030;28;20015;-81
2023/09/19 13:11:12;;;;;;;2.78;1.27;;;21.80;99.90;;;;;;4973465;28;20022;-81